sensor_id;sensor_type;location;lat;lon;timestamp;P1;durP1;ratioP1;P2;durP2;ratioP2
75818;SDS011;64453;51.944;9.796;2024-02-26T00:01:58;1.87;;;1.77;;
75818;SDS011;64453;51.944;9.796;2024-02-26T00:04:25;2.00;;;1.90;;
75818;SDS011;64453;51.944;9.796;2024-02-26T00:06:52;1.80;;;1.70;;
75818;SDS011;64453;51.944;9.796;2024-02-26T00:09:20;2.00;;;1.80;;
75818;SDS011;64453;51.944;9.796;2024-02-26T00:11:47;2.00;;;1.90;;
75818;SDS011;64453;51.944;9.796;2024-02-26T00:14:15;1.93;;;1.83;;
75818;SDS011;64453;51.944;9.796;2024-02-26T00:16:42;2.00;;;1.90;;
75818;SDS011;64453;51.944;9.796;2024-02-26T00:19:10;1.60;;;1.50;;
75818;SDS011;64453;51.944;9.796;2024-02-26T00:21:39;2.33;;;1.73;;
75818;SDS011;64453;51.944;9.796;2024-02-26T00:24:07;3.93;;;1.73;;
75818;SDS011;64453;51.944;9.796;2024-02-26T00:26:34;1.73;;;1.63;;
75818;SDS011;64453;51.944;9.796;2024-02-26T00:29:01;2.13;;;1.93;;
75818;SDS011;64453;51.944;9.796;2024-02-26T00:31:34;1.87;;;1.67;;
75818;SDS011;64453;51.944;9.796;2024-02-26T00:34:03;1.90;;;1.60;;
75818;SDS011;64453;51.944;9.796;2024-02-26T00:36:31;1.97;;;1.87;;
75818;SDS011;64453;51.944;9.796;2024-02-26T00:38:58;2.90;;;1.87;;
75818;SDS011;64453;51.944;9.796;2024-02-26T00:41:25;2.20;;;2.10;;
75818;SDS011;64453;51.944;9.796;2024-02-26T00:43:52;1.70;;;1.60;;
75818;SDS011;64453;51.944;9.796;2024-02-26T00:46:19;2.33;;;2.20;;
75818;SDS011;64453;51.944;9.796;2024-02-26T00:48:47;3.60;;;1.93;;
75818;SDS011;64453;51.944;9.796;2024-02-26T00:51:14;2.03;;;1.93;;
75818;SDS011;64453;51.944;9.796;2024-02-26T00:53:42;1.90;;;1.80;;
75818;SDS011;64453;51.944;9.796;2024-02-26T00:56:09;1.23;;;1.23;;
75818;SDS011;64453;51.944;9.796;2024-02-26T00:58:36;2.07;;;1.57;;
75818;SDS011;64453;51.944;9.796;2024-02-26T01:01:03;1.60;;;1.50;;
75818;SDS011;64453;51.944;9.796;2024-02-26T01:03:30;1.17;;;1.17;;
75818;SDS011;64453;51.944;9.796;2024-02-26T01:05:59;1.67;;;1.57;;
75818;SDS011;64453;51.944;9.796;2024-02-26T01:08:26;1.63;;;1.53;;
75818;SDS011;64453;51.944;9.796;2024-02-26T01:10:53;1.57;;;1.47;;
75818;SDS011;64453;51.944;9.796;2024-02-26T01:13:20;1.50;;;1.40;;
75818;SDS011;64453;51.944;9.796;2024-02-26T01:15:48;1.40;;;1.40;;
75818;SDS011;64453;51.944;9.796;2024-02-26T01:18:15;1.83;;;1.70;;
75818;SDS011;64453;51.944;9.796;2024-02-26T01:20:42;1.57;;;1.47;;
75818;SDS011;64453;51.944;9.796;2024-02-26T01:23:11;1.83;;;1.73;;
75818;SDS011;64453;51.944;9.796;2024-02-26T01:25:40;1.53;;;1.43;;
75818;SDS011;64453;51.944;9.796;2024-02-26T01:28:08;1.60;;;1.50;;
75818;SDS011;64453;51.944;9.796;2024-02-26T01:30:37;1.93;;;1.83;;
75818;SDS011;64453;51.944;9.796;2024-02-26T01:33:04;1.70;;;1.60;;
75818;SDS011;64453;51.944;9.796;2024-02-26T01:35:31;1.60;;;1.50;;
75818;SDS011;64453;51.944;9.796;2024-02-26T01:37:58;3.93;;;1.50;;
75818;SDS011;64453;51.944;9.796;2024-02-26T01:40:27;1.60;;;1.50;;
75818;SDS011;64453;51.944;9.796;2024-02-26T01:42:55;1.40;;;1.30;;
75818;SDS011;64453;51.944;9.796;2024-02-26T01:45:22;1.60;;;1.50;;
75818;SDS011;64453;51.944;9.796;2024-02-26T01:47:50;1.57;;;1.50;;
75818;SDS011;64453;51.944;9.796;2024-02-26T01:50:19;1.50;;;1.40;;
75818;SDS011;64453;51.944;9.796;2024-02-26T01:52:47;1.47;;;1.33;;
75818;SDS011;64453;51.944;9.796;2024-02-26T01:55:15;1.13;;;1.03;;
75818;SDS011;64453;51.944;9.796;2024-02-26T01:57:45;1.13;;;1.13;;
75818;SDS011;64453;51.944;9.796;2024-02-26T02:00:17;1.27;;;1.27;;
75818;SDS011;64453;51.944;9.796;2024-02-26T02:02:46;1.87;;;1.50;;
75818;SDS011;64453;51.944;9.796;2024-02-26T02:05:14;3.83;;;2.00;;
75818;SDS011;64453;51.944;9.796;2024-02-26T02:07:43;1.53;;;1.43;;
75818;SDS011;64453;51.944;9.796;2024-02-26T02:10:12;1.83;;;1.37;;
75818;SDS011;64453;51.944;9.796;2024-02-26T02:12:40;1.27;;;1.27;;
75818;SDS011;64453;51.944;9.796;2024-02-26T02:15:09;1.50;;;1.40;;
75818;SDS011;64453;51.944;9.796;2024-02-26T02:17:36;1.97;;;1.53;;
75818;SDS011;64453;51.944;9.796;2024-02-26T02:20:03;1.90;;;1.80;;
75818;SDS011;64453;51.944;9.796;2024-02-26T02:22:39;1.60;;;1.50;;
75818;SDS011;64453;51.944;9.796;2024-02-26T02:25:07;1.50;;;1.40;;
75818;SDS011;64453;51.944;9.796;2024-02-26T02:27:34;1.57;;;1.57;;
75818;SDS011;64453;51.944;9.796;2024-02-26T02:30:04;1.17;;;1.17;;
75818;SDS011;64453;51.944;9.796;2024-02-26T02:32:35;1.93;;;1.70;;
75818;SDS011;64453;51.944;9.796;2024-02-26T02:35:04;2.50;;;1.50;;
75818;SDS011;64453;51.944;9.796;2024-02-26T02:37:32;1.50;;;1.43;;
75818;SDS011;64453;51.944;9.796;2024-02-26T02:40:00;1.50;;;1.50;;
75818;SDS011;64453;51.944;9.796;2024-02-26T02:42:28;1.10;;;1.10;;
75818;SDS011;64453;51.944;9.796;2024-02-26T02:44:56;0.90;;;0.90;;
75818;SDS011;64453;51.944;9.796;2024-02-26T02:47:23;1.33;;;1.23;;
75818;SDS011;64453;51.944;9.796;2024-02-26T02:49:51;1.60;;;1.17;;
75818;SDS011;64453;51.944;9.796;2024-02-26T02:52:18;1.27;;;1.27;;
75818;SDS011;64453;51.944;9.796;2024-02-26T02:54:45;1.60;;;1.53;;
75818;SDS011;64453;51.944;9.796;2024-02-26T02:57:14;1.20;;;1.10;;
75818;SDS011;64453;51.944;9.796;2024-02-26T02:59:41;0.83;;;0.83;;
75818;SDS011;64453;51.944;9.796;2024-02-26T03:02:08;1.60;;;1.50;;
75818;SDS011;64453;51.944;9.796;2024-02-26T03:04:35;1.10;;;1.10;;
75818;SDS011;64453;51.944;9.796;2024-02-26T03:07:02;1.03;;;1.03;;
75818;SDS011;64453;51.944;9.796;2024-02-26T03:09:28;1.47;;;1.30;;
75818;SDS011;64453;51.944;9.796;2024-02-26T03:11:55;1.27;;;1.17;;
75818;SDS011;64453;51.944;9.796;2024-02-26T03:14:23;1.60;;;1.50;;
75818;SDS011;64453;51.944;9.796;2024-02-26T03:16:52;1.00;;;1.00;;
75818;SDS011;64453;51.944;9.796;2024-02-26T03:19:20;1.10;;;1.10;;
75818;SDS011;64453;51.944;9.796;2024-02-26T03:21:47;1.00;;;1.00;;
75818;SDS011;64453;51.944;9.796;2024-02-26T03:24:14;1.17;;;1.07;;
75818;SDS011;64453;51.944;9.796;2024-02-26T03:26:41;1.30;;;1.20;;
75818;SDS011;64453;51.944;9.796;2024-02-26T03:29:09;2.00;;;1.07;;
75818;SDS011;64453;51.944;9.796;2024-02-26T03:31:41;1.40;;;1.30;;
75818;SDS011;64453;51.944;9.796;2024-02-26T03:34:08;1.60;;;1.50;;
75818;SDS011;64453;51.944;9.796;2024-02-26T03:36:37;0.90;;;0.90;;
75818;SDS011;64453;51.944;9.796;2024-02-26T03:39:04;1.27;;;1.23;;
75818;SDS011;64453;51.944;9.796;2024-02-26T03:41:32;0.90;;;0.90;;
75818;SDS011;64453;51.944;9.796;2024-02-26T03:44:00;1.10;;;0.97;;
75818;SDS011;64453;51.944;9.796;2024-02-26T03:46:27;2.93;;;2.73;;
75818;SDS011;64453;51.944;9.796;2024-02-26T03:48:56;2.43;;;2.33;;
75818;SDS011;64453;51.944;9.796;2024-02-26T03:51:23;2.07;;;1.97;;
75818;SDS011;64453;51.944;9.796;2024-02-26T03:53:50;1.60;;;1.50;;
75818;SDS011;64453;51.944;9.796;2024-02-26T03:56:17;1.10;;;1.10;;
75818;SDS011;64453;51.944;9.796;2024-02-26T03:58:45;1.70;;;1.50;;
75818;SDS011;64453;51.944;9.796;2024-02-26T04:01:13;1.93;;;1.83;;
75818;SDS011;64453;51.944;9.796;2024-02-26T04:03:41;1.93;;;1.83;;
75818;SDS011;64453;51.944;9.796;2024-02-26T04:06:10;1.80;;;1.70;;
75818;SDS011;64453;51.944;9.796;2024-02-26T04:08:39;1.33;;;1.33;;
75818;SDS011;64453;51.944;9.796;2024-02-26T04:11:08;1.37;;;1.37;;
75818;SDS011;64453;51.944;9.796;2024-02-26T04:13:35;1.60;;;1.50;;
75818;SDS011;64453;51.944;9.796;2024-02-26T04:16:03;2.20;;;1.40;;
75818;SDS011;64453;51.944;9.796;2024-02-26T04:18:32;2.40;;;2.30;;
75818;SDS011;64453;51.944;9.796;2024-02-26T04:21:00;2.00;;;1.90;;
75818;SDS011;64453;51.944;9.796;2024-02-26T04:23:29;3.20;;;1.97;;
75818;SDS011;64453;51.944;9.796;2024-02-26T04:25:56;1.87;;;1.77;;
75818;SDS011;64453;51.944;9.796;2024-02-26T04:28:23;1.70;;;1.30;;
75818;SDS011;64453;51.944;9.796;2024-02-26T04:30:51;1.50;;;1.40;;
75818;SDS011;64453;51.944;9.796;2024-02-26T04:33:18;1.23;;;1.00;;
75818;SDS011;64453;51.944;9.796;2024-02-26T04:35:45;2.00;;;1.90;;
75818;SDS011;64453;51.944;9.796;2024-02-26T04:38:12;1.27;;;1.27;;
75818;SDS011;64453;51.944;9.796;2024-02-26T04:40:41;1.47;;;1.17;;
75818;SDS011;64453;51.944;9.796;2024-02-26T04:43:08;1.50;;;1.40;;
75818;SDS011;64453;51.944;9.796;2024-02-26T04:45:36;2.20;;;1.10;;
75818;SDS011;64453;51.944;9.796;2024-02-26T04:48:03;1.03;;;1.03;;
75818;SDS011;64453;51.944;9.796;2024-02-26T04:50:31;1.20;;;0.97;;
75818;SDS011;64453;51.944;9.796;2024-02-26T04:52:59;0.90;;;0.90;;
75818;SDS011;64453;51.944;9.796;2024-02-26T04:55:26;4.30;;;1.20;;
75818;SDS011;64453;51.944;9.796;2024-02-26T04:57:54;1.30;;;1.20;;
75818;SDS011;64453;51.944;9.796;2024-02-26T05:00:21;1.27;;;1.17;;
75818;SDS011;64453;51.944;9.796;2024-02-26T05:02:48;1.10;;;1.10;;
75818;SDS011;64453;51.944;9.796;2024-02-26T05:05:15;1.33;;;1.23;;
75818;SDS011;64453;51.944;9.796;2024-02-26T05:07:43;1.17;;;1.07;;
75818;SDS011;64453;51.944;9.796;2024-02-26T05:10:10;1.73;;;1.33;;
75818;SDS011;64453;51.944;9.796;2024-02-26T05:12:40;2.00;;;1.23;;
75818;SDS011;64453;51.944;9.796;2024-02-26T05:15:10;1.17;;;1.00;;
75818;SDS011;64453;51.944;9.796;2024-02-26T05:17:41;1.30;;;1.30;;
75818;SDS011;64453;51.944;9.796;2024-02-26T05:20:08;0.80;;;0.80;;
75818;SDS011;64453;51.944;9.796;2024-02-26T05:22:36;1.60;;;1.53;;
75818;SDS011;64453;51.944;9.796;2024-02-26T05:25:04;1.17;;;1.17;;
75818;SDS011;64453;51.944;9.796;2024-02-26T05:27:32;1.43;;;1.43;;
75818;SDS011;64453;51.944;9.796;2024-02-26T05:29:59;2.43;;;2.30;;
75818;SDS011;64453;51.944;9.796;2024-02-26T05:32:28;2.30;;;2.03;;
75818;SDS011;64453;51.944;9.796;2024-02-26T05:34:55;10.90;;;2.20;;
75818;SDS011;64453;51.944;9.796;2024-02-26T05:37:22;1.73;;;1.63;;
75818;SDS011;64453;51.944;9.796;2024-02-26T05:39:49;3.03;;;2.43;;
75818;SDS011;64453;51.944;9.796;2024-02-26T05:42:15;2.03;;;1.93;;
75818;SDS011;64453;51.944;9.796;2024-02-26T05:44:41;2.43;;;2.23;;
75818;SDS011;64453;51.944;9.796;2024-02-26T05:47:08;2.17;;;1.93;;
75818;SDS011;64453;51.944;9.796;2024-02-26T05:49:37;3.83;;;1.87;;
75818;SDS011;64453;51.944;9.796;2024-02-26T05:52:04;1.47;;;1.37;;
75818;SDS011;64453;51.944;9.796;2024-02-26T05:54:31;2.00;;;1.90;;
75818;SDS011;64453;51.944;9.796;2024-02-26T05:56:58;1.70;;;1.60;;
75818;SDS011;64453;51.944;9.796;2024-02-26T05:59:25;2.40;;;1.43;;
75818;SDS011;64453;51.944;9.796;2024-02-26T06:01:52;1.93;;;1.83;;
75818;SDS011;64453;51.944;9.796;2024-02-26T06:04:19;1.57;;;1.47;;
75818;SDS011;64453;51.944;9.796;2024-02-26T06:06:48;1.80;;;1.70;;
75818;SDS011;64453;51.944;9.796;2024-02-26T06:09:15;2.87;;;2.20;;
75818;SDS011;64453;51.944;9.796;2024-02-26T06:11:42;2.37;;;1.60;;
75818;SDS011;64453;51.944;9.796;2024-02-26T06:14:09;1.30;;;1.30;;
75818;SDS011;64453;51.944;9.796;2024-02-26T06:16:38;1.40;;;1.30;;
75818;SDS011;64453;51.944;9.796;2024-02-26T06:19:04;2.50;;;1.20;;
75818;SDS011;64453;51.944;9.796;2024-02-26T06:21:31;1.80;;;1.50;;
75818;SDS011;64453;51.944;9.796;2024-02-26T06:24:00;1.43;;;1.33;;
75818;SDS011;64453;51.944;9.796;2024-02-26T06:26:27;2.90;;;2.40;;
75818;SDS011;64453;51.944;9.796;2024-02-26T06:28:54;3.63;;;2.50;;
75818;SDS011;64453;51.944;9.796;2024-02-26T06:31:22;1.93;;;1.90;;
75818;SDS011;64453;51.944;9.796;2024-02-26T06:33:51;2.77;;;2.63;;
75818;SDS011;64453;51.944;9.796;2024-02-26T06:36:18;3.50;;;3.07;;
75818;SDS011;64453;51.944;9.796;2024-02-26T06:38:45;6.00;;;2.90;;
75818;SDS011;64453;51.944;9.796;2024-02-26T06:41:14;2.00;;;1.90;;
75818;SDS011;64453;51.944;9.796;2024-02-26T06:43:40;2.17;;;2.00;;
75818;SDS011;64453;51.944;9.796;2024-02-26T06:46:07;6.03;;;3.30;;
75818;SDS011;64453;51.944;9.796;2024-02-26T06:48:34;5.40;;;4.90;;
75818;SDS011;64453;51.944;9.796;2024-02-26T06:51:02;5.00;;;4.53;;
75818;SDS011;64453;51.944;9.796;2024-02-26T06:53:29;5.87;;;2.90;;
75818;SDS011;64453;51.944;9.796;2024-02-26T06:55:57;1.70;;;1.60;;
75818;SDS011;64453;51.944;9.796;2024-02-26T06:58:25;2.40;;;1.77;;
75818;SDS011;64453;51.944;9.796;2024-02-26T07:00:52;1.70;;;1.60;;
75818;SDS011;64453;51.944;9.796;2024-02-26T07:03:19;3.37;;;1.40;;
75818;SDS011;64453;51.944;9.796;2024-02-26T07:05:48;1.40;;;1.40;;
75818;SDS011;64453;51.944;9.796;2024-02-26T07:08:15;1.80;;;1.70;;
75818;SDS011;64453;51.944;9.796;2024-02-26T07:10:43;1.47;;;1.37;;
75818;SDS011;64453;51.944;9.796;2024-02-26T07:13:10;1.37;;;1.37;;
75818;SDS011;64453;51.944;9.796;2024-02-26T07:15:39;2.73;;;1.83;;
75818;SDS011;64453;51.944;9.796;2024-02-26T07:18:06;1.30;;;1.20;;
75818;SDS011;64453;51.944;9.796;2024-02-26T07:20:33;1.43;;;1.37;;
75818;SDS011;64453;51.944;9.796;2024-02-26T07:23:00;2.73;;;1.60;;
75818;SDS011;64453;51.944;9.796;2024-02-26T07:25:28;1.80;;;1.43;;
75818;SDS011;64453;51.944;9.796;2024-02-26T07:27:56;1.17;;;1.17;;
75818;SDS011;64453;51.944;9.796;2024-02-26T07:30:23;1.13;;;1.10;;
75818;SDS011;64453;51.944;9.796;2024-02-26T07:32:51;1.37;;;1.37;;
75818;SDS011;64453;51.944;9.796;2024-02-26T07:35:18;1.00;;;1.00;;
75818;SDS011;64453;51.944;9.796;2024-02-26T07:37:47;3.47;;;2.00;;
75818;SDS011;64453;51.944;9.796;2024-02-26T07:40:15;1.50;;;1.40;;
75818;SDS011;64453;51.944;9.796;2024-02-26T07:42:42;1.77;;;1.67;;
75818;SDS011;64453;51.944;9.796;2024-02-26T07:45:09;1.90;;;1.80;;
75818;SDS011;64453;51.944;9.796;2024-02-26T07:47:37;1.90;;;1.80;;
75818;SDS011;64453;51.944;9.796;2024-02-26T07:50:07;1.83;;;1.73;;
75818;SDS011;64453;51.944;9.796;2024-02-26T07:52:37;2.90;;;2.13;;
75818;SDS011;64453;51.944;9.796;2024-02-26T07:55:04;2.20;;;2.10;;
75818;SDS011;64453;51.944;9.796;2024-02-26T07:57:32;2.53;;;1.73;;
75818;SDS011;64453;51.944;9.796;2024-02-26T07:59:59;2.53;;;1.97;;
75818;SDS011;64453;51.944;9.796;2024-02-26T08:02:27;2.00;;;1.90;;
75818;SDS011;64453;51.944;9.796;2024-02-26T08:04:54;2.07;;;1.93;;
75818;SDS011;64453;51.944;9.796;2024-02-26T08:07:22;2.53;;;2.33;;
75818;SDS011;64453;51.944;9.796;2024-02-26T08:09:49;2.30;;;2.20;;
75818;SDS011;64453;51.944;9.796;2024-02-26T08:12:16;3.00;;;2.70;;
75818;SDS011;64453;51.944;9.796;2024-02-26T08:14:43;3.13;;;2.73;;
75818;SDS011;64453;51.944;9.796;2024-02-26T08:17:10;4.50;;;2.70;;
75818;SDS011;64453;51.944;9.796;2024-02-26T08:19:37;2.57;;;2.33;;
75818;SDS011;64453;51.944;9.796;2024-02-26T08:22:04;3.30;;;2.83;;
75818;SDS011;64453;51.944;9.796;2024-02-26T08:24:32;3.53;;;3.23;;
75818;SDS011;64453;51.944;9.796;2024-02-26T08:26:59;6.67;;;3.30;;
75818;SDS011;64453;51.944;9.796;2024-02-26T08:29:26;3.77;;;3.50;;
75818;SDS011;64453;51.944;9.796;2024-02-26T08:31:52;3.90;;;3.43;;
75818;SDS011;64453;51.944;9.796;2024-02-26T08:34:20;4.23;;;3.60;;
75818;SDS011;64453;51.944;9.796;2024-02-26T08:36:47;4.10;;;3.60;;
75818;SDS011;64453;51.944;9.796;2024-02-26T08:39:15;3.47;;;3.17;;
75818;SDS011;64453;51.944;9.796;2024-02-26T08:41:46;5.77;;;3.00;;
75818;SDS011;64453;51.944;9.796;2024-02-26T08:44:13;2.70;;;2.50;;
75818;SDS011;64453;51.944;9.796;2024-02-26T08:46:40;3.07;;;2.87;;
75818;SDS011;64453;51.944;9.796;2024-02-26T08:49:07;4.60;;;4.17;;
75818;SDS011;64453;51.944;9.796;2024-02-26T08:51:34;5.13;;;4.13;;
75818;SDS011;64453;51.944;9.796;2024-02-26T08:54:01;3.40;;;3.10;;
75818;SDS011;64453;51.944;9.796;2024-02-26T08:56:27;4.20;;;3.90;;
75818;SDS011;64453;51.944;9.796;2024-02-26T08:58:56;3.73;;;3.43;;
75818;SDS011;64453;51.944;9.796;2024-02-26T09:01:24;4.00;;;3.63;;
75818;SDS011;64453;51.944;9.796;2024-02-26T09:03:51;5.10;;;3.70;;
75818;SDS011;64453;51.944;9.796;2024-02-26T09:06:18;7.40;;;5.43;;
75818;SDS011;64453;51.944;9.796;2024-02-26T09:08:45;5.23;;;4.73;;
75818;SDS011;64453;51.944;9.796;2024-02-26T09:11:12;6.90;;;5.43;;
75818;SDS011;64453;51.944;9.796;2024-02-26T09:13:39;6.20;;;5.00;;
75818;SDS011;64453;51.944;9.796;2024-02-26T09:16:08;5.30;;;4.90;;
75818;SDS011;64453;51.944;9.796;2024-02-26T09:18:35;6.17;;;5.37;;
75818;SDS011;64453;51.944;9.796;2024-02-26T09:21:03;6.10;;;5.50;;
75818;SDS011;64453;51.944;9.796;2024-02-26T09:23:31;5.80;;;5.10;;
75818;SDS011;64453;51.944;9.796;2024-02-26T09:25:59;6.10;;;5.50;;
75818;SDS011;64453;51.944;9.796;2024-02-26T09:28:26;6.13;;;5.23;;
75818;SDS011;64453;51.944;9.796;2024-02-26T09:30:56;5.60;;;5.10;;
75818;SDS011;64453;51.944;9.796;2024-02-26T09:33:25;8.33;;;5.10;;
75818;SDS011;64453;51.944;9.796;2024-02-26T09:35:51;5.53;;;4.93;;
75818;SDS011;64453;51.944;9.796;2024-02-26T09:38:18;6.00;;;5.17;;
75818;SDS011;64453;51.944;9.796;2024-02-26T09:40:45;5.60;;;5.03;;
75818;SDS011;64453;51.944;9.796;2024-02-26T09:43:14;6.63;;;5.37;;
75818;SDS011;64453;51.944;9.796;2024-02-26T09:45:41;5.63;;;5.10;;
75818;SDS011;64453;51.944;9.796;2024-02-26T09:48:09;7.60;;;5.87;;
75818;SDS011;64453;51.944;9.796;2024-02-26T09:50:40;8.27;;;6.13;;
75818;SDS011;64453;51.944;9.796;2024-02-26T09:53:08;7.60;;;5.20;;
75818;SDS011;64453;51.944;9.796;2024-02-26T09:55:37;6.67;;;5.73;;
75818;SDS011;64453;51.944;9.796;2024-02-26T09:58:04;10.13;;;6.20;;
75818;SDS011;64453;51.944;9.796;2024-02-26T10:00:32;10.50;;;7.00;;
75818;SDS011;64453;51.944;9.796;2024-02-26T10:03:04;7.50;;;6.10;;
75818;SDS011;64453;51.944;9.796;2024-02-26T10:05:33;7.37;;;6.57;;
75818;SDS011;64453;51.944;9.796;2024-02-26T10:08:03;7.60;;;5.57;;
75818;SDS011;64453;51.944;9.796;2024-02-26T10:10:31;7.27;;;5.90;;
75818;SDS011;64453;51.944;9.796;2024-02-26T10:12:59;6.30;;;5.70;;
75818;SDS011;64453;51.944;9.796;2024-02-26T10:15:27;7.90;;;7.10;;
75818;SDS011;64453;51.944;9.796;2024-02-26T10:17:53;7.33;;;6.47;;
75818;SDS011;64453;51.944;9.796;2024-02-26T10:20:21;6.73;;;6.07;;
75818;SDS011;64453;51.944;9.796;2024-02-26T10:22:48;9.03;;;7.80;;
75818;SDS011;64453;51.944;9.796;2024-02-26T10:25:18;7.63;;;6.87;;
75818;SDS011;64453;51.944;9.796;2024-02-26T10:27:45;10.27;;;6.60;;
75818;SDS011;64453;51.944;9.796;2024-02-26T10:30:15;7.60;;;6.63;;
75818;SDS011;64453;51.944;9.796;2024-02-26T10:32:44;6.90;;;6.20;;
75818;SDS011;64453;51.944;9.796;2024-02-26T10:35:12;8.33;;;6.87;;
75818;SDS011;64453;51.944;9.796;2024-02-26T10:37:40;8.20;;;6.40;;
75818;SDS011;64453;51.944;9.796;2024-02-26T10:40:09;8.67;;;7.10;;
75818;SDS011;64453;51.944;9.796;2024-02-26T10:42:39;8.10;;;6.10;;
75818;SDS011;64453;51.944;9.796;2024-02-26T10:45:07;7.93;;;6.80;;
75818;SDS011;64453;51.944;9.796;2024-02-26T10:47:35;8.40;;;7.00;;
75818;SDS011;64453;51.944;9.796;2024-02-26T10:50:03;9.43;;;6.57;;
75818;SDS011;64453;51.944;9.796;2024-02-26T10:52:33;6.83;;;6.13;;
75818;SDS011;64453;51.944;9.796;2024-02-26T10:55:02;7.17;;;6.00;;
75818;SDS011;64453;51.944;9.796;2024-02-26T10:57:32;8.40;;;6.90;;
75818;SDS011;64453;51.944;9.796;2024-02-26T11:00:05;7.20;;;6.07;;
75818;SDS011;64453;51.944;9.796;2024-02-26T11:02:37;6.90;;;6.20;;
75818;SDS011;64453;51.944;9.796;2024-02-26T11:05:07;7.33;;;6.17;;
75818;SDS011;64453;51.944;9.796;2024-02-26T11:07:35;7.73;;;6.27;;
75818;SDS011;64453;51.944;9.796;2024-02-26T11:10:04;6.90;;;5.93;;
75818;SDS011;64453;51.944;9.796;2024-02-26T11:12:32;7.73;;;6.40;;
75818;SDS011;64453;51.944;9.796;2024-02-26T11:15:04;9.00;;;6.70;;
75818;SDS011;64453;51.944;9.796;2024-02-26T11:17:32;5.60;;;5.10;;
75818;SDS011;64453;51.944;9.796;2024-02-26T11:20:00;7.30;;;6.30;;
75818;SDS011;64453;51.944;9.796;2024-02-26T11:22:27;7.87;;;6.30;;
75818;SDS011;64453;51.944;9.796;2024-02-26T11:24:56;7.63;;;6.37;;
75818;SDS011;64453;51.944;9.796;2024-02-26T11:27:26;8.90;;;6.67;;
75818;SDS011;64453;51.944;9.796;2024-02-26T11:30:01;6.50;;;5.90;;
75818;SDS011;64453;51.944;9.796;2024-02-26T11:32:31;7.23;;;6.10;;
75818;SDS011;64453;51.944;9.796;2024-02-26T11:35:00;6.00;;;5.50;;
75818;SDS011;64453;51.944;9.796;2024-02-26T11:37:27;5.20;;;4.70;;
75818;SDS011;64453;51.944;9.796;2024-02-26T11:39:54;5.30;;;4.80;;
75818;SDS011;64453;51.944;9.796;2024-02-26T11:42:25;5.67;;;4.93;;
75818;SDS011;64453;51.944;9.796;2024-02-26T11:44:53;5.20;;;4.70;;
75818;SDS011;64453;51.944;9.796;2024-02-26T11:47:22;5.50;;;4.97;;
75818;SDS011;64453;51.944;9.796;2024-02-26T11:49:49;7.63;;;4.60;;
75818;SDS011;64453;51.944;9.796;2024-02-26T11:52:17;4.77;;;4.23;;
75818;SDS011;64453;51.944;9.796;2024-02-26T11:54:44;4.80;;;4.30;;
75818;SDS011;64453;51.944;9.796;2024-02-26T11:57:20;5.27;;;4.77;;
75818;SDS011;64453;51.944;9.796;2024-02-26T11:59:47;3.17;;;2.97;;
75818;SDS011;64453;51.944;9.796;2024-02-26T12:05:23;3.70;;;3.40;;
75818;SDS011;64453;51.944;9.796;2024-02-26T12:07:53;3.63;;;3.33;;
75818;SDS011;64453;51.944;9.796;2024-02-26T12:10:25;4.43;;;3.57;;
75818;SDS011;64453;51.944;9.796;2024-02-26T12:12:54;6.07;;;4.00;;
75818;SDS011;64453;51.944;9.796;2024-02-26T12:15:30;3.77;;;3.37;;
75818;SDS011;64453;51.944;9.796;2024-02-26T12:18:05;3.00;;;2.80;;
75818;SDS011;64453;51.944;9.796;2024-02-26T12:20:35;4.73;;;3.10;;
75818;SDS011;64453;51.944;9.796;2024-02-26T12:23:03;3.90;;;3.60;;
75818;SDS011;64453;51.944;9.796;2024-02-26T12:25:31;4.00;;;3.57;;
75818;SDS011;64453;51.944;9.796;2024-02-26T12:28:00;4.80;;;3.20;;
75818;SDS011;64453;51.944;9.796;2024-02-26T12:30:28;5.97;;;4.97;;
75818;SDS011;64453;51.944;9.796;2024-02-26T12:32:57;3.97;;;3.67;;
75818;SDS011;64453;51.944;9.796;2024-02-26T12:35:27;4.37;;;3.97;;
75818;SDS011;64453;51.944;9.796;2024-02-26T12:37:56;3.43;;;3.23;;
75818;SDS011;64453;51.944;9.796;2024-02-26T12:40:24;3.83;;;3.50;;
75818;SDS011;64453;51.944;9.796;2024-02-26T12:42:53;3.07;;;2.87;;
75818;SDS011;64453;51.944;9.796;2024-02-26T12:45:22;3.30;;;3.00;;
75818;SDS011;64453;51.944;9.796;2024-02-26T12:47:50;3.70;;;3.40;;
75818;SDS011;64453;51.944;9.796;2024-02-26T12:50:17;3.63;;;3.33;;
75818;SDS011;64453;51.944;9.796;2024-02-26T12:52:46;2.73;;;2.50;;
75818;SDS011;64453;51.944;9.796;2024-02-26T12:55:15;4.20;;;3.30;;
75818;SDS011;64453;51.944;9.796;2024-02-26T12:57:44;3.50;;;3.30;;
75818;SDS011;64453;51.944;9.796;2024-02-26T13:00:15;3.60;;;3.30;;
75818;SDS011;64453;51.944;9.796;2024-02-26T13:02:45;4.30;;;3.50;;
75818;SDS011;64453;51.944;9.796;2024-02-26T13:05:13;4.23;;;3.10;;
75818;SDS011;64453;51.944;9.796;2024-02-26T13:07:41;4.13;;;3.77;;
75818;SDS011;64453;51.944;9.796;2024-02-26T13:10:11;3.60;;;3.03;;
75818;SDS011;64453;51.944;9.796;2024-02-26T13:12:42;8.03;;;3.47;;
75818;SDS011;64453;51.944;9.796;2024-02-26T13:15:13;4.00;;;3.60;;
75818;SDS011;64453;51.944;9.796;2024-02-26T13:17:42;4.17;;;3.77;;
75818;SDS011;64453;51.944;9.796;2024-02-26T13:20:09;4.43;;;4.07;;
75818;SDS011;64453;51.944;9.796;2024-02-26T13:22:37;3.70;;;3.40;;
75818;SDS011;64453;51.944;9.796;2024-02-26T13:25:04;3.60;;;3.30;;
75818;SDS011;64453;51.944;9.796;2024-02-26T13:27:34;4.83;;;4.40;;
75818;SDS011;64453;51.944;9.796;2024-02-26T13:30:06;5.50;;;4.40;;
75818;SDS011;64453;51.944;9.796;2024-02-26T13:32:37;5.23;;;4.40;;
75818;SDS011;64453;51.944;9.796;2024-02-26T13:35:06;4.33;;;3.93;;
75818;SDS011;64453;51.944;9.796;2024-02-26T13:37:34;4.87;;;4.37;;
75818;SDS011;64453;51.944;9.796;2024-02-26T13:40:04;4.83;;;4.43;;
75818;SDS011;64453;51.944;9.796;2024-02-26T13:42:33;4.83;;;3.73;;
75818;SDS011;64453;51.944;9.796;2024-02-26T13:45:01;5.13;;;4.47;;
75818;SDS011;64453;51.944;9.796;2024-02-26T13:47:31;4.80;;;4.40;;
75818;SDS011;64453;51.944;9.796;2024-02-26T13:49:58;6.60;;;5.90;;
75818;SDS011;64453;51.944;9.796;2024-02-26T13:52:25;5.63;;;5.03;;
75818;SDS011;64453;51.944;9.796;2024-02-26T13:54:53;4.40;;;4.00;;
75818;SDS011;64453;51.944;9.796;2024-02-26T13:57:20;4.50;;;4.10;;
75818;SDS011;64453;51.944;9.796;2024-02-26T13:59:49;6.90;;;4.90;;
75818;SDS011;64453;51.944;9.796;2024-02-26T14:02:17;4.77;;;4.27;;
75818;SDS011;64453;51.944;9.796;2024-02-26T14:04:45;5.63;;;5.10;;
75818;SDS011;64453;51.944;9.796;2024-02-26T14:07:13;4.70;;;4.30;;
75818;SDS011;64453;51.944;9.796;2024-02-26T14:09:42;5.23;;;4.73;;
75818;SDS011;64453;51.944;9.796;2024-02-26T14:12:11;5.00;;;4.57;;
75818;SDS011;64453;51.944;9.796;2024-02-26T14:14:38;6.17;;;4.80;;
75818;SDS011;64453;51.944;9.796;2024-02-26T14:17:09;4.53;;;4.13;;
75818;SDS011;64453;51.944;9.796;2024-02-26T14:19:36;5.43;;;4.83;;
75818;SDS011;64453;51.944;9.796;2024-02-26T14:22:05;6.17;;;5.10;;
75818;SDS011;64453;51.944;9.796;2024-02-26T14:24:31;7.53;;;5.03;;
75818;SDS011;64453;51.944;9.796;2024-02-26T14:26:58;5.93;;;5.43;;
75818;SDS011;64453;51.944;9.796;2024-02-26T14:29:26;5.60;;;4.77;;
75818;SDS011;64453;51.944;9.796;2024-02-26T14:31:52;4.87;;;4.40;;
75818;SDS011;64453;51.944;9.796;2024-02-26T14:34:22;5.57;;;5.03;;
75818;SDS011;64453;51.944;9.796;2024-02-26T14:36:50;4.83;;;4.43;;
75818;SDS011;64453;51.944;9.796;2024-02-26T14:39:17;5.93;;;4.83;;
75818;SDS011;64453;51.944;9.796;2024-02-26T14:41:44;7.10;;;4.40;;
75818;SDS011;64453;51.944;9.796;2024-02-26T14:44:10;5.70;;;5.10;;
75818;SDS011;64453;51.944;9.796;2024-02-26T14:46:37;5.67;;;4.70;;
75818;SDS011;64453;51.944;9.796;2024-02-26T14:49:04;4.83;;;4.33;;
75818;SDS011;64453;51.944;9.796;2024-02-26T14:51:37;4.83;;;4.37;;
75818;SDS011;64453;51.944;9.796;2024-02-26T14:54:04;6.07;;;5.13;;
75818;SDS011;64453;51.944;9.796;2024-02-26T14:56:31;5.73;;;4.67;;